Historyczne dane pomiarowe

Dodano dane terminowe – wersja testowa.

Dane z okresu 1951-2019

Wersja bazy: 1.34 [2019-03-16, lista zmian], aktualizacja planowana na 2019-04-15

Dane meteo z obszaru Polski uzyskane na podstawie danych udostępnionych przez Instytut Meteorologii i Gospodarki Wodnej – Państwowy Instytut Badawczy.

 

Wybierz Datę:    

       

TemperaturaWilgotnośćWiatrCiśnienieOpadyŚniegCzas trwania zjawisk
 Stacja t tx tn tng RH VA  wxwx mslp ppp RRR   cm mm wxwxwxwxwxwxwx
1983-04-17 6.4 13.1 0.4- 63.5- 0.3 1.7---- 0.0------------
1983-04-18 7.1 14.6 0.8- 54.3- 2.0 2.7---- 0.0------------
1983-04-19 10.3 15.0 3.1- 58.8- 2.7 5.0---- 0.0------------
1983-04-20 14.0 20.0 9.7- 72.0- 1.3 4.0---- 0.0------------
1983-04-21 15.6 22.8 9.7- 65.5- 1.7 1.7---- 0.0------------
1983-04-22 15.8 21.8 9.4- 72.5- 7.3 5.0---- 0.5------------
1983-04-23 14.2 18.1 12.1- 81.3- 3.0 2.7---- 0.0------------
1983-04-24 13.8 18.3 10.6- 82.3- 7.7 4.7---- 0.0------------
1983-04-25 15.9 22.6 11.9- 67.0- 5.3 3.7---- 1.1------------
1983-04-26 15.9 22.8 8.3- 62.8- 1.3 4.7---- 0.0------------
1983-04-27 16.2 21.9 12.9- 59.0- 5.3 6.0---- 0.0------------
1983-04-28 16.3 20.9 11.3- 72.0- 5.0 2.7---- 0.7------------
1983-04-29 15.9 21.6 10.8- 74.3- 5.7 1.7---- 5.1------------
1983-04-30 11.6 16.5 8.2- 90.3- 7.0 2.0---- 0.3------------
1983-05-01 12.4 20.6 5.8- 76.5- 5.0 2.0---- 7.7------------
1983-05-02 12.2 16.1 7.9- 85.0- 8.0 6.7---- 37.2------------
1983-05-03 11.0 15.5 7.8- 80.8- 7.3 4.3---- 0.9------------
1983-05-04 10.2 16.0 4.8- 74.5- 3.3 1.7---- 10.6------------
1983-05-05 8.5 12.0 6.7- 80.8- 6.3 4.0---- 1.3------------
1983-05-06 7.2 10.3 5.0- 84.3- 5.0 4.3---- 0.4------------
1983-05-07 9.9 13.2 6.3- 70.8- 6.3 1.3---- 0.0------------
1983-05-08 10.6 16.2 3.4- 66.5- 5.0 4.0---- 5.2------------
1983-05-09 11.5 14.2 9.8- 92.8- 8.0 2.0---- 6.5------------
1983-05-10 11.9 13.1 11.6- 97.3- 8.0 0.0---- 5.4------------
1983-05-11 14.0 19.1 8.0- 79.3- 4.7 6.0---- 0.0------------
1983-05-12 17.0 21.2 14.7- 68.5- 3.7 5.0---- 0.0------------
1983-05-13 18.3 23.8 12.4- 67.8- 2.0 6.0---- 0.0------------
1983-05-14 17.9 23.8 13.1- 75.8- 4.7 4.0---- 0.0------------
1983-05-15 19.7 26.1 12.2- 66.5- 3.3 7.0---- 0.0------------
1983-05-16 23.4 28.5 19.3- 54.3- 1.7 3.7---- 0.0------------
137.0 ms

 

Źródłem pochodzenia danych jest Instytut Meteorologii i Gospodarki Wodnej – Państwowy Instytut Badawczy. Dane Instytutu Meteorologii i Gospodarki Wodnej – Państwowego Instytutu Badawczego zostały przetworzone.

Dane źródłowe można odnaleźć na stronie https://dane.imgw.pl